Time;durP1;ratioP1;P1;durP2;ratioP2;P2;SDS_P1;SDS_P2;PMS_P1;PMS_P2;Temp;Humidity;BMP_temperature;BMP_pressure;BME280_temperature;BME280_humidity;BME280_pressure;Samples;Min_cycle;Max_cycle;Signal;HPM_P1;HPM_P2
2022/07/05 00:02:05;;;;;;;16.05;8.70;;;;;;;20.21;60.94;100905.03;5073384;28;20028;-90
2022/07/05 00:04:35;;;;;;;11.82;4.93;;;;;;;20.21;60.73;100896.03;5040824;28;20075;-87
2022/07/05 00:07:19;;;;;;;8.25;4.20;;;;;;;20.33;60.80;100918.00;5056527;28;20072;-85
2022/07/05 00:09:53;;;;;;;8.57;4.38;;;;;;;20.24;60.71;100892.84;5038167;28;20535;-86
2022/07/05 00:12:29;;;;;;;7.32;4.15;;;;;;;20.02;61.55;100890.44;5035434;28;20041;-86
2022/07/05 00:14:56;;;;;;;8.05;4.43;;;;;;;20.12;61.46;100910.97;5073656;28;20385;-88
2022/07/05 00:17:25;;;;;;;10.13;4.60;;;;;;;20.15;61.28;100916.00;5040192;28;20036;-85
2022/07/05 00:19:53;;;;;;;8.07;4.40;;;;;;;19.97;61.93;100913.97;5035943;28;20040;-86
2022/07/05 00:22:21;;;;;;;6.93;4.38;;;;;;;19.91;61.99;100903.94;5028343;28;20039;-85
2022/07/05 00:24:47;;;;;;;8.57;4.25;;;;;;;19.94;62.03;100898.03;5039997;28;20051;-86
2022/07/05 00:27:13;;;;;;;9.60;4.15;;;;;;;20.10;61.92;100921.28;5054012;28;20037;-86
2022/07/05 00:29:41;;;;;;;;;;;;;;;20.11;61.89;100926.53;5073536;28;20043;-86
2022/07/05 00:32:07;;;;;;;7.65;4.30;;;;;;;19.94;62.59;100909.78;5055293;28;19994;-87
2022/07/05 00:34:32;;;;;;;;;;;;;;;19.99;62.54;100923.63;5038819;28;20503;-86
2022/07/05 00:37:01;;;;;;;6.55;4.13;;;;;;;19.97;62.30;100903.91;5038149;28;19920;-86
2022/07/05 00:39:29;;;;;;;8.32;4.40;;;;;;;19.86;62.41;100895.56;5048361;28;20401;-86
2022/07/05 00:42:00;;;;;;;7.05;4.20;;;;;;;19.93;62.19;100905.41;5053768;28;21009;-85
2022/07/05 00:44:35;;;;;;;8.00;4.40;;;;;;;20.01;62.46;100916.06;5037297;28;20048;-85
2022/07/05 00:47:03;;;;;;;;;;;;;;;20.12;62.27;100913.72;5057372;28;20032;-85
2022/07/05 00:49:30;;;;;;;7.15;4.03;;;;;;;20.08;62.26;100909.72;5080464;28;19967;-86
2022/07/05 00:51:56;;;;;;;9.57;3.97;;;;;;;19.93;62.48;100886.28;5039378;28;20052;-85
2022/07/05 00:54:24;;;;;;;6.72;3.92;;;;;;;19.96;62.37;100891.31;5044561;28;20091;-85
2022/07/05 00:56:51;;;;;;;8.70;4.40;;;;;;;20.09;62.25;100911.41;5053223;28;20071;-86
2022/07/05 00:59:22;;;;;;;8.93;4.30;;;;;;;20.03;62.00;100897.56;5054150;28;20036;-86
2022/07/05 01:01:50;;;;;;;8.45;4.35;;;;;;;20.10;62.10;100903.00;5053765;28;20037;-87
2022/07/05 01:04:17;;;;;;;10.88;4.00;;;;;;;20.02;62.25;100889.63;5051173;28;20052;-86
2022/07/05 01:06:48;;;;;;;9.77;4.32;;;;;;;20.14;61.79;100903.41;5048223;28;20029;-86
2022/07/05 01:09:26;;;;;;;12.82;4.13;;;;;;;20.12;62.02;100905.53;5054688;28;20067;-86
2022/07/05 01:11:51;;;;;;;;;;;;;;;20.07;62.03;100908.06;5038078;28;20221;-85
2022/07/05 01:14:19;;;;;;;8.65;3.75;;;;;;;19.91;62.42;100904.78;5073833;28;19919;-86
2022/07/05 01:17:00;;;;;;;9.00;4.00;;;;;;;19.75;62.86;100894.34;5036427;28;20131;-85
2022/07/05 01:19:32;;;;;;;5.72;3.60;;;;;;;19.78;62.24;100893.91;5055915;28;20076;-84
2022/07/05 01:22:05;;;;;;;6.85;3.50;;;;;;;19.60;62.82;100892.69;5038100;28;20408;-87
2022/07/05 01:24:30;;;;;;;10.27;3.85;;;;;;;19.65;62.95;100893.94;5053238;28;20068;-86
2022/07/05 01:26:56;;;;;;;;;;;;;;;19.77;62.67;100911.34;5055723;28;20156;-86
2022/07/05 01:29:24;;;;;;;8.32;3.70;;;;;;;19.78;62.67;100913.00;5072492;28;19916;-86
2022/07/05 01:31:59;;;;;;;8.48;3.83;;;;;;;19.61;62.74;100891.63;5036611;28;20025;-86
2022/07/05 01:34:24;;;;;;;7.80;3.85;;;;;;;19.67;63.17;100902.75;5049694;28;20039;-86
2022/07/05 01:36:50;;;;;;;9.15;4.30;;;;;;;19.63;63.00;100906.94;5040930;28;20032;-85
2022/07/05 01:39:18;;;;;;;8.98;3.80;;;;;;;19.52;62.81;100883.91;5069551;28;20032;-85
2022/07/05 01:41:48;;;;;;;13.90;3.90;;;;;;;19.69;62.45;100903.38;5038071;28;20127;-85
2022/07/05 01:44:13;;;;;;;10.82;3.97;;;;;;;19.63;63.05;100901.50;5054430;28;20048;-85
2022/07/05 01:46:39;;;;;;;;;;;;;;;19.63;62.85;100915.13;5018540;28;20630;-85
2022/07/05 01:49:12;;;;;;;12.57;4.03;;;;;;;19.55;62.92;100895.22;5054334;28;19943;-86
2022/07/05 01:51:54;;;;;;;9.30;3.90;;;;;;;19.33;62.97;100880.19;5022232;28;20455;-87
2022/07/05 01:54:25;;;;;;;16.77;4.40;;;;;;;19.34;63.32;100881.88;5048594;28;20114;-85
2022/07/05 01:56:54;;;;;;;7.93;4.40;;;;;;;19.58;62.86;100899.41;5067918;28;20024;-84
2022/07/05 01:59:25;;;;;;;11.30;4.63;;;;;;;19.27;63.32;100886.47;5054413;28;20032;-86
2022/07/05 02:01:51;;;;;;;14.80;4.50;;;;;;;19.42;63.16;100895.25;5047662;28;20146;-87
2022/07/05 02:04:16;;;;;;;;;;;;;;;19.60;62.99;100909.06;5032388;28;20229;-86
2022/07/05 02:06:45;;;;;;;13.00;4.22;;;;;;;19.50;62.55;100892.31;5036123;28;20328;-85
2022/07/05 02:09:14;;;;;;;13.95;4.40;;;;;;;19.43;63.01;100886.00;5053747;28;20042;-85
2022/07/05 02:11:40;;;;;;;19.25;4.53;;;;;;;19.27;63.85;100891.94;5017500;28;20045;-86
2022/07/05 02:14:05;;;;;;;;;;;;;;;19.39;63.96;100903.88;5053715;28;20028;-86
2022/07/05 02:16:34;;;;;;;14.13;4.40;;;;;;;19.36;63.66;100891.50;5045028;28;20518;-86
2022/07/05 02:19:00;;;;;;;20.10;5.03;;;;;;;19.50;63.46;100908.69;5033816;28;20036;-85
2022/07/05 02:21:26;;;;;;;13.38;5.07;;;;;;;19.35;63.26;100883.53;5051049;28;20040;-87
2022/07/05 02:23:54;;;;;;;;;;;;;;;19.39;64.08;100912.88;5072658;28;20052;-86
2022/07/05 02:26:19;;;;;;;14.55;4.63;;;;;;;19.13;64.33;100883.78;5069521;28;19912;-85
2022/07/05 02:29:10;;;;;;;;;;;;;;;19.45;64.03;100913.91;5053362;28;20186;-85
2022/07/05 02:31:37;;;;;;;16.60;5.30;;;;;;;19.34;64.12;100903.69;5058392;28;19934;-90
2022/07/05 02:34:03;;;;;;;17.35;5.88;;;;;;;19.28;64.55;100918.16;5051243;28;20051;-86
2022/07/05 02:36:28;;;;;;;;;;;;;;;19.25;64.57;100927.59;5072561;28;20024;-86
2022/07/05 02:38:54;;;;;;;21.20;6.30;;;;;;;19.26;64.63;100931.16;5052682;28;19923;-88
2022/07/05 02:41:19;;;;;;;;;;;;;;;19.21;64.82;100936.41;5037136;28;20413;-87
2022/07/05 02:43:48;;;;;;;20.27;7.07;;;;;;;19.07;65.28;100933.69;5054965;28;19913;-86
2022/07/05 02:46:21;;;;;;;17.73;7.00;;;;;;;19.04;65.16;100915.03;5038161;28;20032;-85
2022/07/05 02:48:47;;;;;;;17.17;7.90;;;;;;;19.22;65.36;100938.06;5036385;28;20044;-85
2022/07/05 02:51:18;;;;;;;15.95;8.00;;;;;;;19.21;65.36;100941.84;5056589;28;20406;-86
2022/07/05 02:53:44;;;;;;;21.85;8.57;;;;;;;19.13;64.85;100916.50;5036390;28;20432;-87
2022/07/05 02:56:17;;;;;;;14.52;8.00;;;;;;;19.33;64.43;100929.25;5038891;28;20043;-86
2022/07/05 02:58:49;;;;;;;18.02;8.35;;;;;;;19.26;64.36;100917.53;5025331;28;20453;-88
2022/07/05 03:01:34;;;;;;;23.20;7.72;;;;;;;19.31;64.33;100917.72;5047988;28;20049;-86
2022/07/05 03:04:02;;;;;;;19.40;7.57;;;;;;;19.34;64.22;100925.50;5043274;28;20098;-87
2022/07/05 03:06:33;;;;;;;17.60;7.75;;;;;;;19.36;64.56;100920.63;5050205;28;20088;-85
2022/07/05 03:09:53;;;;;;;21.13;8.10;;;;;;;19.43;64.25;100934.25;5046074;28;20032;-87
2022/07/05 03:12:21;;;;;;;17.83;7.28;;;;;;;19.44;63.96;100920.44;5074062;28;20037;-85
2022/07/05 03:14:47;;;;;;;17.10;7.32;;;;;;;19.46;63.86;100923.78;5055678;28;20040;-84
2022/07/05 03:17:13;;;;;;;13.70;6.80;;;;;;;19.50;63.50;100922.31;5036778;28;20037;-86
2022/07/05 03:19:41;;;;;;;;;;;;;;;19.72;63.00;100930.25;5043946;28;20036;-85
2022/07/05 03:22:35;;;;;;;15.73;7.40;;;;;;;19.65;62.98;100921.22;5045252;28;19963;-85
2022/07/05 03:25:01;;;;;;;14.23;7.15;;;;;;;19.67;62.42;100927.31;5055563;28;20033;-85
2022/07/05 03:27:28;;;;;;;;;;;;;;;19.89;62.09;100944.25;5010350;28;20125;-86
2022/07/05 03:29:57;;;;;;;18.48;6.80;;;;;;;19.80;61.56;100924.53;5048790;28;20023;-87
2022/07/05 03:32:25;;;;;;;13.73;5.90;;;;;;;19.94;61.15;100939.81;5049854;28;20040;-87
2022/07/05 03:34:53;;;;;;;11.20;5.18;;;;;;;19.88;60.91;100921.59;5050032;28;20047;-88
2022/07/05 03:37:20;;;;;;;11.80;5.40;;;;;;;20.09;60.12;100939.56;5031289;28;20103;-88
2022/07/05 03:39:54;;;;;;;12.07;5.40;;;;;;;20.13;60.19;100918.09;5039096;28;20068;-87
2022/07/05 03:42:20;;;;;;;12.40;5.00;;;;;;;20.23;60.11;100923.94;5047322;28;20048;-87
2022/07/05 03:44:50;;;;;;;10.85;5.47;;;;;;;20.19;60.08;100918.06;5027655;28;20033;-89
2022/07/05 03:47:16;;;;;;;14.00;5.13;;;;;;;20.45;59.86;100938.91;5050027;28;20071;-87
2022/07/05 03:49:48;;;;;;;13.63;5.75;;;;;;;20.41;59.58;100910.38;5029262;28;20433;-87
2022/07/05 03:52:14;;;;;;;13.82;5.50;;;;;;;20.58;59.42;100934.44;5041642;28;20048;-88
2022/07/05 03:54:40;;;;;;;16.92;6.57;;;;;;;20.49;59.63;100919.38;5040754;28;20197;-89
2022/07/05 03:57:09;;;;;;;15.32;5.97;;;;;;;20.49;58.66;100930.31;5036820;28;20033;-86
2022/07/05 03:59:38;;;;;;;13.65;6.50;;;;;;;20.68;58.52;100942.19;5040573;28;20072;-89
2022/07/05 04:02:07;;;;;;;16.75;6.43;;;;;;;20.56;58.57;100918.31;5027772;28;20049;-90
2022/07/05 04:04:38;;;;;;;16.75;6.65;;;;;;;20.74;58.09;100920.25;5016255;28;20029;-89
2022/07/05 04:07:11;;;;;;;19.33;7.38;;;;;;;20.90;58.00;100929.81;5049869;28;20056;-86
2022/07/05 04:09:47;;;;;;;20.08;7.85;;;;;;;21.08;57.66;100923.56;5033031;28;20036;-88
2022/07/05 04:12:12;;;;;;;;;;;;;;;21.35;57.44;100948.75;5050026;28;20068;-88
2022/07/05 04:14:38;;;;;;;18.42;8.55;;;;;;;21.34;57.38;100927.13;5033883;28;20369;-86
2022/07/05 04:17:09;;;;;;;18.30;8.30;;;;;;;21.76;56.80;100943.75;5036984;28;20130;-87
2022/07/05 04:19:36;;;;;;;21.20;8.73;;;;;;;21.84;56.17;100924.25;5012703;28;20095;-88
2022/07/05 04:22:04;;;;;;;18.15;8.95;;;;;;;22.00;55.87;100931.03;5008731;28;20459;-87
2022/07/05 04:24:30;;;;;;;23.27;8.80;;;;;;;22.26;55.27;100932.59;5049703;28;20123;-87
2022/07/05 04:26:56;;;;;;;20.50;9.07;;;;;;;22.43;54.67;100919.06;5014913;28;20132;-89
2022/07/05 04:29:26;;;;;;;29.27;8.98;;;;;;;22.64;54.63;100925.94;5028528;28;20056;-88
2022/07/05 04:31:52;;;;;;;22.50;9.32;;;;;;;22.82;54.16;100933.25;5029068;28;20037;-87
2022/07/05 04:34:18;;;;;;;17.63;8.57;;;;;;;22.91;53.57;100918.94;5011200;28;20411;-87
2022/07/05 04:36:46;;;;;;;21.85;8.60;;;;;;;23.00;53.16;100919.47;5045587;28;20044;-86
2022/07/05 04:39:13;;;;;;;24.83;8.25;;;;;;;23.11;52.67;100928.81;5031858;28;20037;-86
2022/07/05 04:41:38;;;;;;;24.08;8.00;;;;;;;23.29;52.12;100917.69;5029179;28;20120;-88
2022/07/05 04:44:38;;;;;;;18.15;8.27;;;;;;;23.58;51.16;100923.28;4991631;28;20037;-87
2022/07/05 04:47:05;;;;;;;22.85;9.13;;;;;;;23.73;51.19;100931.84;5049957;28;20124;-88
2022/07/05 04:49:42;;;;;;;20.98;8.98;;;;;;;23.74;50.55;100911.59;5021505;28;20396;-91
2022/07/05 04:52:08;;;;;;;26.02;9.52;;;;;;;24.08;49.67;100922.69;5021441;28;20075;-89
2022/07/05 04:54:37;;;;;;;22.08;8.80;;;;;;;24.25;48.82;100900.78;5003006;28;20157;-83
2022/07/05 04:57:07;;;;;;;20.38;9.05;;;;;;;24.45;47.89;100936.06;5036643;28;20048;-89
2022/07/05 04:59:36;;;;;;;19.70;8.50;;;;;;;24.55;47.71;100935.44;5069001;28;20071;-88
2022/07/05 05:02:18;;;;;;;24.50;8.23;;;;;;;24.52;47.87;100934.00;5035063;28;20036;-87
2022/07/05 05:04:44;;;;;;;22.63;8.00;;;;;;;24.66;47.48;100908.97;5055195;28;20109;-90
2022/07/05 05:07:09;;;;;;;21.35;7.75;;;;;;;24.91;47.06;100922.28;5060191;28;20115;-91
2022/07/05 05:09:36;;;;;;;21.35;7.95;;;;;;;25.08;46.34;100916.81;5040419;28;20037;-90
2022/07/05 05:12:04;;;;;;;25.45;8.82;;;;;;;25.35;46.20;100925.22;5038187;28;20040;-88
2022/07/05 05:14:29;;;;;;;24.20;8.45;;;;;;;25.43;46.24;100933.88;5037974;28;20050;-87
2022/07/05 05:17:01;;;;;;;22.23;8.68;;;;;;;25.43;45.70;100925.63;5045320;28;20032;-88
2022/07/05 05:19:29;;;;;;;24.75;8.13;;;;;;;25.60;44.70;100922.00;5074119;28;20056;-87
2022/07/05 05:22:04;;;;;;;19.70;7.38;;;;;;;25.96;43.18;100936.22;5043317;28;20165;-89
2022/07/05 05:24:31;;;;;;;20.80;6.95;;;;;;;26.05;42.16;100923.69;5055703;28;20039;-87
2022/07/05 05:26:57;;;;;;;19.30;7.95;;;;;;;26.34;41.59;100935.31;5040246;28;21695;-85
2022/07/05 05:29:32;;;;;;;17.92;6.88;;;;;;;26.57;41.55;100936.94;5073012;28;20036;-84
2022/07/05 05:31:57;;;;;;;23.42;6.25;;;;;;;26.63;40.37;100922.09;5058777;28;20599;-86
2022/07/05 05:34:31;;;;;;;13.68;5.30;;;;;;;26.82;39.99;100927.25;5073579;28;20516;-86
2022/07/05 05:36:58;;;;;;;20.88;5.20;;;;;;;27.22;39.50;100950.75;5077971;28;20033;-88
2022/07/05 05:39:26;;;;;;;15.52;4.70;;;;;;;27.41;39.50;100929.91;5060701;28;20059;-86
2022/07/05 05:42:31;;;;;;;12.38;4.78;;;;;;;27.87;39.41;100941.22;5046064;28;20017;-87
2022/07/05 05:48:02;;;;;;;16.92;6.65;;;;;;;28.07;39.60;100926.63;5074370;28;19911;-89
2022/07/05 05:50:36;;;;;;;19.02;6.38;;;;;;;28.07;39.67;100936.84;5018780;28;20079;-91
2022/07/05 05:53:45;;;;;;;16.55;7.20;;;;;;;28.23;39.72;100940.50;5039862;28;20074;-90
2022/07/05 05:56:10;;;;;;;11.95;6.60;;;;;;;28.27;39.82;100919.50;5068329;28;20025;-87
2022/07/05 05:58:39;;;;;;;19.80;6.20;;;;;;;28.49;39.61;100916.53;5080517;28;20094;-90
2022/07/05 06:01:30;;;;;;;16.52;6.07;;;;;;;28.50;38.68;100912.69;5070897;28;20020;-92
2022/07/05 06:04:00;;;;;;;17.50;5.55;;;;;;;28.81;38.84;100924.59;5051607;28;20098;-90
2022/07/05 06:06:33;;;;;;;11.43;4.80;;;;;;;28.89;37.98;100914.88;5030895;28;20103;-90
2022/07/05 06:09:01;;;;;;;15.13;5.50;;;;;;;29.03;37.42;100910.44;5048748;28;20032;-90
2022/07/05 06:11:34;;;;;;;11.00;5.20;;;;;;;29.15;37.76;100924.88;5048340;28;20047;-88
2022/07/05 06:14:04;;;;;;;16.33;5.07;;;;;;;29.25;36.74;100926.78;5068868;28;20028;-88
2022/07/05 06:16:41;;;;;;;14.18;4.90;;;;;;;29.32;34.65;100916.25;5050976;28;20041;-90
2022/07/05 06:19:13;;;;;;;9.95;3.38;;;;;;;29.39;32.26;100914.03;5036212;28;20102;-85
2022/07/05 06:21:46;;;;;;;7.47;3.20;;;;;;;29.38;32.07;100928.13;5036390;28;20401;-93
2022/07/05 06:24:16;;;;;;;14.05;3.17;;;;;;;29.70;33.17;100929.75;5068128;28;20468;-82
2022/07/05 06:26:58;;;;;;;13.27;3.35;;;;;;;29.85;32.38;100935.22;5026066;28;20097;-91
2022/07/05 06:29:52;;;;;;;7.80;2.65;;;;;;;29.94;31.52;100908.56;5069342;28;20095;-94
2022/07/05 06:32:27;;;;;;;11.73;3.47;;;;;;;30.09;30.88;100907.69;5048958;28;20043;-86
2022/07/05 06:35:21;;;;;;;6.85;2.45;;;;;;;30.30;30.98;100922.28;5041703;28;20045;-92
2022/07/05 06:37:59;;;;;;;13.70;2.40;;;;;;;30.36;28.23;100932.22;5044356;28;20072;-90
2022/07/05 06:40:35;;;;;;;8.55;2.90;;;;;;;30.55;29.24;100934.31;5048475;28;20475;-92
2022/07/05 06:43:06;;;;;;;10.57;2.17;;;;;;;30.49;27.90;100919.66;5063100;28;20031;-89
2022/07/05 06:45:34;;;;;;;12.43;2.63;;;;;;;30.76;29.00;100930.25;5030029;28;20412;-88
2022/07/05 06:48:04;;;;;;;6.32;1.95;;;;;;;30.79;27.19;100935.25;5062830;28;20110;-88
2022/07/05 06:50:36;;;;;;;5.22;2.33;;;;;;;30.59;28.81;100907.66;5033421;28;20118;-87
2022/07/05 06:53:07;;;;;;;3.40;1.70;;;;;;;30.59;24.17;100918.75;5050377;28;20117;-84
2022/07/05 06:55:37;;;;;;;5.40;1.95;;;;;;;30.59;25.44;100915.97;5058579;28;20044;-88
2022/07/05 06:58:11;;;;;;;3.40;1.65;;;;;;;30.67;23.20;100912.56;5067449;28;20044;-87
2022/07/05 07:00:39;;;;;;;4.53;2.05;;;;;;;30.74;25.85;100909.47;5051168;28;20160;-86
2022/07/05 07:03:05;;;;;;;7.38;1.83;;;;;;;30.65;21.93;100929.53;5068942;28;20060;-87
2022/07/05 07:05:33;;;;;;;6.32;1.90;;;;;;;30.74;23.42;100913.06;5049509;28;20036;-87
2022/07/05 07:10:46;;;;;;;4.35;1.80;;;;;;;30.88;28.14;100932.69;5053222;28;20052;-88
2022/07/05 07:13:12;;;;;;;8.60;1.90;;;;;;;30.95;28.15;100935.13;5051498;28;20045;-89
2022/07/05 07:15:40;;;;;;;5.10;2.17;;;;;;;31.14;28.03;100924.97;5040546;28;20090;-89
2022/07/05 07:18:07;;;;;;;4.55;1.92;;;;;;;31.10;29.86;100921.13;5046516;28;20037;-90
2022/07/05 07:21:11;;;;;;;6.57;2.00;;;;;;;30.91;29.79;100944.06;5037183;28;20163;-93
2022/07/05 07:23:44;;;;;;;6.30;2.20;;;;;;;30.75;27.10;100927.78;5056124;28;20540;-91
2022/07/05 07:29:54;;;;;;;7.72;2.30;;;;;;;31.18;28.13;100948.25;5061356;28;20052;-93
2022/07/05 07:32:23;;;;;;;5.18;1.95;;;;;;;31.07;28.83;100946.66;5054859;28;20037;-91
2022/07/05 07:35:23;;;;;;;7.10;1.98;;;;;;;31.38;29.79;100947.22;5071709;28;20025;-92
2022/07/05 07:38:02;;;;;;;7.22;2.72;;;;;;;31.76;28.79;100942.63;5072762;28;20047;-92
2022/07/05 07:40:30;;;;;;;7.10;2.47;;;;;;;31.93;28.44;100938.53;5070885;28;20013;-92
2022/07/05 07:43:00;;;;;;;7.15;2.50;;;;;;;31.75;28.91;100949.34;5064888;28;20033;-90
2022/07/05 07:45:35;;;;;;;8.25;2.50;;;;;;;31.53;26.17;100932.34;5025217;28;20609;-91
2022/07/05 07:48:03;;;;;;;4.00;2.60;;;;;;;31.95;29.00;100964.09;5074061;28;20048;-92
2022/07/05 07:50:35;;;;;;;8.23;2.10;;;;;;;31.94;26.21;100945.78;5037493;28;20052;-93
2022/07/05 07:53:21;;;;;;;6.40;2.35;;;;;;;31.86;27.63;100963.09;5051884;28;20107;-92
2022/07/05 07:55:51;;;;;;;6.63;2.40;;;;;;;31.78;26.72;100938.75;5052784;28;20029;-93
2022/07/05 07:58:29;;;;;;;7.07;2.30;;;;;;;31.75;26.16;100960.44;5041719;28;20120;-93
2022/07/05 08:04:53;;;;;;;3.55;2.13;;;;;;;31.93;25.42;100963.56;5040875;28;20052;-92
2022/07/05 08:07:21;;;;;;;8.13;2.33;;;;;;;31.88;25.35;100960.84;5045655;28;20489;-90
2022/07/05 08:09:50;;;;;;;7.25;2.45;;;;;;;32.36;26.00;100958.84;5051845;28;20035;-89
2022/07/05 08:12:23;;;;;;;9.82;2.30;;;;;;;32.35;23.04;100964.69;5041610;28;20529;-87
2022/07/05 08:15:10;;;;;;;6.75;2.90;;;;;;;32.71;23.80;100959.47;5270794;23;20046;-91
2022/07/05 08:17:36;;;;;;;5.70;2.13;;;;;;;32.97;22.48;100948.72;5011399;28;20235;-88
2022/07/05 08:23:11;;;;;;;7.97;2.10;;;;;;;33.11;24.50;100964.69;5014000;28;20040;-92
2022/07/05 08:25:46;;;;;;;6.68;2.28;;;;;;;33.22;23.18;100967.00;5071243;28;20128;-91
2022/07/05 08:28:31;;;;;;;3.42;1.90;;;;;;;32.98;22.60;100950.38;4996292;28;20081;-92
2022/07/05 08:30:57;;;;;;;9.25;2.20;;;;;;;33.24;24.75;100961.09;5013475;28;20453;-89
2022/07/05 08:33:25;;;;;;;7.45;2.47;;;;;;;33.81;22.63;100977.56;5022504;28;20037;-90
2022/07/05 08:36:03;;;;;;;6.75;1.88;;;;;;;33.76;21.26;100964.59;5022761;28;20033;-89
2022/07/05 08:38:33;;;;;;;4.13;1.98;;;;;;;34.01;21.95;100965.19;5042080;28;20037;-90
2022/07/05 08:41:03;;;;;;;7.82;1.90;;;;;;;34.08;21.47;100971.16;5028689;28;20497;-89
2022/07/05 08:43:49;;;;;;;5.50;2.22;;;;;;;34.04;23.68;100973.78;5031529;28;20037;-89
2022/07/05 08:46:29;;;;;;;4.45;2.17;;;;;;;33.59;26.96;100970.75;5022028;28;20041;-92
2022/07/05 08:48:54;;;;;;;8.13;2.28;;;;;;;34.04;24.14;100986.88;5003486;28;20041;-89
2022/07/05 08:51:26;;;;;;;11.80;2.15;;;;;;;34.29;25.49;100981.91;5002039;28;20519;-88
2022/07/05 08:53:52;;;;;;;6.63;2.33;;;;;;;34.54;26.46;100967.38;5042198;28;20025;-88
2022/07/05 08:56:34;;;;;;;5.20;2.10;;;;;;;35.04;24.20;100981.25;5021475;28;20043;-93
2022/07/05 08:59:05;;;;;;;8.20;2.13;;;;;;;34.96;23.83;100970.00;5001124;28;20069;-90
2022/07/05 09:01:36;;;;;;;4.75;2.00;;;;;;;34.17;23.95;100957.34;5017455;28;20033;-84
2022/07/05 09:04:10;;;;;;;6.43;2.10;;;;;;;34.39;25.38;100976.91;4984811;28;20061;-85
2022/07/05 09:06:39;;;;;;;12.43;2.30;;;;;;;35.06;23.90;100969.75;5037793;28;20490;-86
2022/07/05 09:09:07;;;;;;;6.57;2.20;;;;;;;34.90;23.31;100986.06;4981693;28;20036;-83
2022/07/05 09:11:41;;;;;;;6.28;2.25;;;;;;;35.12;22.86;100990.84;5037552;28;20037;-85
2022/07/05 09:14:23;;;;;;;5.28;2.05;;;;;;;34.72;24.52;100975.91;5011656;28;20559;-85
2022/07/05 09:16:56;;;;;;;4.50;2.10;;;;;;;34.99;24.73;100959.03;4995890;28;20046;-86
2022/07/05 09:19:22;;;;;;;8.10;2.20;;;;;;;35.00;25.42;100963.47;5012148;28;20041;-84
2022/07/05 09:21:49;;;;;;;7.03;2.40;;;;;;;35.50;24.47;100982.84;4985081;28;20037;-84
2022/07/05 09:24:29;;;;;;;6.20;2.10;;;;;;;35.02;25.02;100983.53;4989760;28;20030;-84
2022/07/05 09:27:01;;;;;;;3.60;2.00;;;;;;;35.62;24.16;100978.66;5005896;28;20021;-85
2022/07/05 09:29:30;;;;;;;5.65;2.08;;;;;;;36.23;24.57;100982.47;4992869;28;20033;-84
2022/07/05 09:31:56;;;;;;;7.53;2.50;;;;;;;36.73;23.46;100973.63;5008185;28;20052;-83
2022/07/05 09:34:21;;;;;;;5.35;1.98;;;;;;;37.40;21.43;100968.59;4996973;28;20030;-84
2022/07/05 09:36:50;;;;;;;7.85;2.13;;;;;;;37.54;23.02;100972.03;5009778;28;20041;-82
2022/07/05 09:39:16;;;;;;;11.30;2.15;;;;;;;36.97;23.73;100975.94;5017345;28;20041;-81
2022/07/05 09:41:42;;;;;;;5.88;2.10;;;;;;;36.91;22.57;100973.63;5021349;28;20033;-83
2022/07/05 09:44:08;;;;;;;9.57;2.20;;;;;;;36.92;23.57;100969.66;5014150;28;20058;-85
2022/07/05 09:46:35;;;;;;;4.22;2.00;;;;;;;38.18;23.87;100961.78;5020059;28;20029;-81
2022/07/05 09:49:03;;;;;;;5.40;2.00;;;;;;;37.50;21.75;100973.00;4999911;28;20052;-83
2022/07/05 09:51:32;;;;;;;6.18;2.15;;;;;;;36.90;24.18;100957.94;5013997;28;20048;-84
2022/07/05 09:54:02;;;;;;;4.30;2.00;;;;;;;37.20;22.26;100960.91;4998799;28;20053;-82
2022/07/05 09:56:44;;;;;;;6.47;2.03;;;;;;;37.98;23.63;100936.16;5009471;28;20073;-89
2022/07/05 09:59:21;;;;;;;5.32;2.78;;;;;;;38.29;22.17;100943.38;5027354;28;20525;-92
2022/07/05 10:01:52;;;;;;;6.20;2.40;;;;;;;39.26;20.27;100961.81;5011757;28;20033;-82
2022/07/05 10:04:29;;;;;;;6.07;2.05;;;;;;;39.68;20.67;100953.19;4991120;28;20053;-86
2022/07/05 10:06:56;;;;;;;5.70;2.13;;;;;;;39.50;22.96;100953.78;5005842;28;20042;-83
2022/07/05 10:09:29;;;;;;;6.35;2.00;;;;;;;39.02;22.95;100944.91;4993255;28;20053;-86
2022/07/05 10:12:28;;;;;;;5.75;2.08;;;;;;;39.02;22.96;100962.59;4991432;28;20174;-83
2022/07/05 10:14:56;;;;;;;6.80;1.90;;;;;;;39.49;21.28;100950.16;5010823;28;20042;-82
2022/07/05 10:17:47;;;;;;;7.05;1.90;;;;;;;38.36;22.58;100943.66;5013881;28;20041;-85
2022/07/05 10:20:16;;;;;;;6.72;2.10;;;;;;;38.02;24.55;100961.56;5023711;28;20044;-87
2022/07/05 10:22:47;;;;;;;6.68;1.98;;;;;;;36.92;27.21;100964.06;5012705;28;20038;-86
2022/07/05 10:25:14;;;;;;;3.53;1.90;;;;;;;37.19;23.80;100954.47;5013158;28;20064;-86
2022/07/05 10:27:52;;;;;;;7.32;2.17;;;;;;;37.38;24.63;100959.69;5020469;28;20042;-86
2022/07/05 10:30:23;;;;;;;9.30;2.40;;;;;;;36.87;26.18;100934.22;5018287;28;20064;-87
2022/07/05 10:32:57;;;;;;;4.05;1.77;;;;;;;37.23;24.63;100946.19;5009864;28;20092;-87
2022/07/05 10:35:29;;;;;;;5.50;2.10;;;;;;;36.63;24.42;100945.97;5038512;28;20033;-88
2022/07/05 10:37:54;;;;;;;5.45;2.25;;;;;;;37.13;25.30;100942.59;5005310;28;20049;-88
2022/07/05 10:40:28;;;;;;;4.55;2.25;;;;;;;36.97;25.67;100933.91;5042648;28;20034;-88
2022/07/05 10:43:04;;;;;;;2.92;1.85;;;;;;;36.24;25.70;100927.31;5015353;28;20537;-87
2022/07/05 10:45:50;;;;;;;8.27;1.90;;;;;;;35.78;24.62;100931.50;5026314;28;20065;-89
2022/07/05 10:48:45;;;;;;;8.18;2.40;;;;;;;35.81;25.20;100942.03;5014761;28;20037;-89
2022/07/05 10:51:12;;;;;;;4.63;2.10;;;;;;;35.81;27.83;100931.69;5053762;28;20040;-87
2022/07/05 10:53:37;;;;;;;6.25;2.20;;;;;;;34.83;29.79;100941.00;5016787;28;20517;-86
2022/07/05 10:56:03;;;;;;;6.78;2.10;;;;;;;34.76;28.07;100947.03;5041954;28;20060;-88
2022/07/05 10:58:41;;;;;;;4.75;2.15;;;;;;;34.56;29.11;100953.94;5031688;28;20041;-85
2022/07/05 11:01:25;;;;;;;5.30;1.90;;;;;;;34.00;28.25;100941.22;5024550;28;20052;-86
2022/07/05 11:04:04;;;;;;;3.80;2.13;;;;;;;33.60;30.82;100938.97;5032490;28;20052;-84
2022/07/05 11:06:51;;;;;;;4.28;2.05;;;;;;;33.20;31.18;100943.31;5024535;28;20420;-82
2022/07/05 11:09:24;;;;;;;5.55;2.05;;;;;;;32.97;31.68;100926.44;5024228;28;20041;-84
2022/07/05 11:12:03;;;;;;;4.35;2.10;;;;;;;32.65;30.73;100943.16;5009387;28;20033;-84
2022/07/05 11:14:37;;;;;;;7.45;2.20;;;;;;;32.37;32.44;100935.44;4997239;28;20034;-85
2022/07/05 11:17:25;;;;;;;5.22;2.30;;;;;;;32.70;32.80;100934.72;5013486;28;20435;-83
2022/07/05 11:20:11;;;;;;;3.25;2.20;;;;;;;32.30;34.20;100934.19;4995495;28;20127;-84
2022/07/05 11:23:07;;;;;;;6.95;1.75;;;;;;;31.80;35.58;100931.78;5027191;28;20029;-84
2022/07/05 11:25:36;;;;;;;8.68;2.30;;;;;;;32.25;34.56;100912.00;5014052;28;20056;-85
2022/07/05 11:28:09;;;;;;;3.08;1.90;;;;;;;32.28;34.51;100926.13;5012254;28;20038;-84
2022/07/05 11:30:46;;;;;;;7.13;2.08;;;;;;;32.37;34.91;100935.44;5036871;28;20056;-84
2022/07/05 11:33:33;;;;;;;10.23;2.13;;;;;;;31.89;35.11;100929.13;5013514;28;20052;-84
2022/07/05 11:36:04;;;;;;;7.55;2.58;;;;;;;31.29;35.33;100927.59;5010302;28;20541;-84
2022/07/05 11:38:35;;;;;;;3.90;1.90;;;;;;;30.51;37.78;100911.88;5030630;28;20115;-88
2022/07/05 11:41:13;;;;;;;4.68;2.10;;;;;;;30.87;36.74;100919.94;5016480;28;20103;-87
2022/07/05 11:43:42;;;;;;;4.40;1.88;;;;;;;30.76;35.90;100913.59;5004864;28;20028;-87
2022/07/05 11:46:11;;;;;;;5.85;2.00;;;;;;;31.09;35.77;100911.13;5009250;28;20120;-85
2022/07/05 11:48:40;;;;;;;6.93;2.10;;;;;;;31.28;35.05;100914.84;5032964;28;20099;-88
2022/07/05 11:51:12;;;;;;;7.10;1.90;;;;;;;31.06;35.95;100911.72;5023898;28;20035;-89
2022/07/05 11:53:41;;;;;;;3.78;2.00;;;;;;;31.41;35.49;100918.88;5021874;28;20100;-88
2022/07/05 11:56:07;;;;;;;10.57;2.60;;;;;;;31.31;35.12;100892.00;5035136;28;20025;-89
2022/07/05 11:58:36;;;;;;;7.47;1.90;;;;;;;31.83;33.65;100894.22;5002703;28;20106;-87
2022/07/05 12:01:02;;;;;;;6.72;1.70;;;;;;;31.43;33.12;100899.97;5017610;28;20060;-88
2022/07/05 12:03:28;;;;;;;3.95;1.88;;;;;;;31.37;33.74;100886.41;4999679;28;20120;-88